PWSweather.com
Personal Weather Stations
Station Observations
NAGEO265NE
Bedzin GrodziecPL 42-506

Bedzin GrodziecPL 42-506

Lat: 50.347, Lon: 19.079

Elevation: 948

Station Type: WH1080

http://www.meteo-grodziec.pl/

High Low Average
Temperature 37.0°F2.8°C 32.9°F0.5°C 35.1°F1.7°C
Dew Point 35.4°F1.9°C 32.2°F0.1°C 34.0°F1.1°C
Winds 9.0 mph 14.5 kmh 1.0 mph 1.6 kmh 5.0 mph SW8.0 kmh SW
Wind Gusts 23.0 mph37.0 kmh 3.0 mph4.8 kmh 12.0 mph19.3 kmh
Humidity 98% 92% 96%
Pressure 29.68 in1005.1 mb 29.13 in986.5 mb -
Precipitation 0.28 in7.1 mm - -
Hour Temp Dew Point Humidity Winds Wind Gusts Pressure Precip Precip Rate Daily Precip Total
12:00 AM 34.3°F1.3°C 33.1°F0.6°C 95% 5.0 mph SW8.0 kmh SW 13.0 mph20.9 kmh 29.68 in1005.1 mb 0.03 in0.8 mm 0.00 in0.0 mm 0.03 in0.8 mm
12:05 AM 34.3°F1.3°C 33.1°F0.6°C 95% 4.0 mph SW6.4 kmh SW 11.0 mph17.7 kmh 29.68 in1005.1 mb 0.03 in0.8 mm 0.00 in0.0 mm 0.03 in0.8 mm
12:10 AM 34.3°F1.3°C 33.1°F0.6°C 95% 4.0 mph SW6.4 kmh SW 10.0 mph16.1 kmh 29.68 in1005.1 mb 0.03 in0.8 mm 0.00 in0.0 mm 0.03 in0.8 mm
12:15 AM 34.3°F1.3°C 33.3°F0.7°C 96% 3.0 mph SW4.8 kmh SW 10.0 mph16.1 kmh 29.67 in1004.7 mb 0.03 in0.8 mm 0.00 in0.0 mm 0.01 in0.3 mm
12:20 AM 34.2°F1.2°C 33.3°F0.7°C 96% 3.0 mph SW4.8 kmh SW 11.0 mph17.7 kmh 29.67 in1004.7 mb 0.03 in0.8 mm 0.00 in0.0 mm 0.01 in0.3 mm
12:25 AM 34.2°F1.2°C 33.3°F0.7°C 96% 4.0 mph SW6.4 kmh SW 11.0 mph17.7 kmh 29.67 in1004.7 mb 0.03 in0.8 mm 0.00 in0.0 mm 0.01 in0.3 mm
12:30 AM 34.2°F1.2°C 33.3°F0.7°C 96% 4.0 mph SW6.4 kmh SW 9.0 mph14.5 kmh 29.67 in1004.7 mb 0.02 in0.5 mm 0.00 in0.0 mm 0.01 in0.3 mm
12:35 AM 34.2°F1.2°C 33.3°F0.7°C 96% 4.0 mph SW6.4 kmh SW 9.0 mph14.5 kmh 29.67 in1004.7 mb 0.03 in0.8 mm 0.12 in3.0 mm 0.02 in0.5 mm
12:40 AM 34.2°F1.2°C 33.1°F0.6°C 96% 4.0 mph SW6.4 kmh SW 9.0 mph14.5 kmh 29.67 in1004.7 mb 0.03 in0.8 mm 0.00 in0.0 mm 0.02 in0.5 mm
12:45 AM 34.2°F1.2°C 33.3°F0.7°C 96% 4.0 mph SW6.4 kmh SW 10.0 mph16.1 kmh 29.66 in1004.4 mb 0.02 in0.5 mm 0.00 in0.0 mm 0.02 in0.5 mm
12:50 AM 34.2°F1.2°C 33.1°F0.6°C 96% 4.0 mph SW6.4 kmh SW 10.0 mph16.1 kmh 29.66 in1004.4 mb 0.02 in0.5 mm 0.00 in0.0 mm 0.02 in0.5 mm
12:55 AM 34.2°F1.2°C 33.1°F0.6°C 96% 4.0 mph SW6.4 kmh SW 10.0 mph16.1 kmh 29.66 in1004.4 mb 0.02 in0.5 mm 0.00 in0.0 mm 0.02 in0.5 mm
01:00 AM 34.0°F1.1°C 32.9°F0.5°C 96% 3.0 mph SW4.8 kmh SW 10.0 mph16.1 kmh 29.66 in1004.4 mb 0.02 in0.5 mm 0.00 in0.0 mm 0.02 in0.5 mm
01:05 AM 34.0°F1.1°C 32.9°F0.5°C 96% 3.0 mph SW4.8 kmh SW 9.0 mph14.5 kmh 29.66 in1004.4 mb 0.02 in0.5 mm 0.00 in0.0 mm 0.02 in0.5 mm
01:10 AM 34.0°F1.1°C 32.9°F0.5°C 96% 2.0 mph SW3.2 kmh SW 10.0 mph16.1 kmh 29.66 in1004.4 mb 0.02 in0.5 mm 0.00 in0.0 mm 0.02 in0.5 mm
01:15 AM 34.0°F1.1°C 32.9°F0.5°C 96% 3.0 mph SW4.8 kmh SW 10.0 mph16.1 kmh 29.66 in1004.4 mb 0.02 in0.5 mm 0.00 in0.0 mm 0.02 in0.5 mm
01:20 AM 33.8°F1.0°C 32.7°F0.4°C 96% 3.0 mph SW4.8 kmh SW 7.0 mph11.3 kmh 29.66 in1004.4 mb 0.02 in0.5 mm 0.00 in0.0 mm 0.03 in0.8 mm
01:25 AM 33.6°F0.9°C 32.7°F0.4°C 96% 4.0 mph SW6.4 kmh SW 11.0 mph17.7 kmh 29.66 in1004.4 mb 0.02 in0.5 mm 0.00 in0.0 mm 0.03 in0.8 mm
01:30 AM 33.8°F1.0°C 32.7°F0.4°C 96% 4.0 mph SW6.4 kmh SW 11.0 mph17.7 kmh 29.66 in1004.4 mb 0.02 in0.5 mm 0.00 in0.0 mm 0.03 in0.8 mm
01:35 AM 33.8°F1.0°C 32.7°F0.4°C 96% 4.0 mph SW6.4 kmh SW 9.0 mph14.5 kmh 29.66 in1004.4 mb 0.02 in0.5 mm 0.00 in0.0 mm 0.04 in1.0 mm
01:40 AM 33.8°F1.0°C 32.7°F0.4°C 96% 4.0 mph SW6.4 kmh SW 10.0 mph16.1 kmh 29.66 in1004.4 mb 0.02 in0.5 mm 0.00 in0.0 mm 0.04 in1.0 mm
01:45 AM 33.8°F1.0°C 32.7°F0.4°C 96% 3.0 mph SW4.8 kmh SW 10.0 mph16.1 kmh 29.66 in1004.4 mb 0.02 in0.5 mm 0.00 in0.0 mm 0.04 in1.0 mm
01:50 AM 33.6°F0.9°C 32.7°F0.4°C 96% 3.0 mph SW4.8 kmh SW 9.0 mph14.5 kmh 29.65 in1004.1 mb 0.02 in0.5 mm 0.00 in0.0 mm 0.04 in1.0 mm
01:55 AM 33.8°F1.0°C 33.1°F0.6°C 97% 4.0 mph SW6.4 kmh SW 9.0 mph14.5 kmh 29.66 in1004.4 mb 0.02 in0.5 mm 0.00 in0.0 mm 0.04 in1.0 mm
02:00 AM 33.6°F0.9°C 32.9°F0.5°C 97% 4.0 mph SW6.4 kmh SW 13.0 mph20.9 kmh 29.66 in1004.4 mb 0.02 in0.5 mm 0.00 in0.0 mm 0.05 in1.3 mm
02:05 AM 33.6°F0.9°C 32.9°F0.5°C 97% 4.0 mph SW6.4 kmh SW 13.0 mph20.9 kmh 29.66 in1004.4 mb 0.02 in0.5 mm 0.00 in0.0 mm 0.05 in1.3 mm
02:10 AM 33.6°F0.9°C 32.9°F0.5°C 97% 4.0 mph SW6.4 kmh SW 13.0 mph20.9 kmh 29.65 in1004.1 mb 0.02 in0.5 mm 0.00 in0.0 mm 0.05 in1.3 mm
02:15 AM 33.6°F0.9°C 32.9°F0.5°C 97% 4.0 mph SW6.4 kmh SW 13.0 mph20.9 kmh 29.65 in1004.1 mb 0.03 in0.8 mm 0.12 in3.0 mm 0.06 in1.5 mm
02:20 AM 33.4°F0.8°C 32.7°F0.4°C 97% 4.0 mph SW6.4 kmh SW 10.0 mph16.1 kmh 29.65 in1004.1 mb 0.02 in0.5 mm 0.00 in0.0 mm 0.06 in1.5 mm
02:25 AM 33.4°F0.8°C 32.7°F0.4°C 97% 3.0 mph SW4.8 kmh SW 10.0 mph16.1 kmh 29.65 in1004.1 mb 0.02 in0.5 mm 0.00 in0.0 mm 0.06 in1.5 mm
02:30 AM 33.3°F0.7°C 32.5°F0.3°C 97% 3.0 mph SW4.8 kmh SW 11.0 mph17.7 kmh 29.65 in1004.1 mb 0.02 in0.5 mm 0.00 in0.0 mm 0.06 in1.5 mm
02:35 AM 33.3°F0.7°C 32.5°F0.3°C 97% 4.0 mph SW6.4 kmh SW 11.0 mph17.7 kmh 29.65 in1004.1 mb 0.02 in0.5 mm 0.00 in0.0 mm 0.06 in1.5 mm
02:40 AM 33.3°F0.7°C 32.5°F0.3°C 97% 3.0 mph WSW4.8 kmh WSW 11.0 mph17.7 kmh 29.65 in1004.1 mb 0.02 in0.5 mm 0.00 in0.0 mm 0.06 in1.5 mm
02:45 AM 33.3°F0.7°C 32.4°F0.2°C 97% 3.0 mph SW4.8 kmh SW 8.0 mph12.9 kmh 29.65 in1004.1 mb 0.02 in0.5 mm 0.00 in0.0 mm 0.06 in1.5 mm
02:50 AM 33.3°F0.7°C 32.4°F0.2°C 97% 3.0 mph SW4.8 kmh SW 9.0 mph14.5 kmh 29.65 in1004.1 mb 0.02 in0.5 mm 0.00 in0.0 mm 0.06 in1.5 mm
02:55 AM 33.3°F0.7°C 32.4°F0.2°C 97% 3.0 mph SW4.8 kmh SW 10.0 mph16.1 kmh 29.65 in1004.1 mb 0.02 in0.5 mm 0.00 in0.0 mm 0.06 in1.5 mm
03:00 AM 33.3°F0.7°C 32.4°F0.2°C 97% 3.0 mph SW4.8 kmh SW 10.0 mph16.1 kmh 29.65 in1004.1 mb 0.02 in0.5 mm 0.00 in0.0 mm 0.06 in1.5 mm
03:05 AM 33.1°F0.6°C 32.4°F0.2°C 97% 3.0 mph SW4.8 kmh SW 9.0 mph14.5 kmh 29.65 in1004.1 mb 0.02 in0.5 mm 0.00 in0.0 mm 0.06 in1.5 mm
03:10 AM 33.1°F0.6°C 32.4°F0.2°C 97% 2.0 mph SW3.2 kmh SW 6.0 mph9.7 kmh 29.65 in1004.1 mb 0.02 in0.5 mm 0.00 in0.0 mm 0.06 in1.5 mm
03:15 AM 33.1°F0.6°C 32.2°F0.1°C 97% 2.0 mph SW3.2 kmh SW 4.0 mph6.4 kmh 29.65 in1004.1 mb 0.01 in0.3 mm 0.00 in0.0 mm 0.06 in1.5 mm
03:20 AM 32.9°F0.5°C 32.2°F0.1°C 97% 1.0 mph SW1.6 kmh SW 5.0 mph8.0 kmh 29.65 in1004.1 mb 0.01 in0.3 mm 0.00 in0.0 mm 0.06 in1.5 mm
03:25 AM 32.9°F0.5°C 32.2°F0.1°C 97% 2.0 mph SW3.2 kmh SW 5.0 mph8.0 kmh 29.65 in1004.1 mb 0.01 in0.3 mm 0.00 in0.0 mm 0.06 in1.5 mm
03:30 AM 33.1°F0.6°C 32.2°F0.1°C 97% 2.0 mph SW3.2 kmh SW 5.0 mph8.0 kmh 29.65 in1004.1 mb 0.01 in0.3 mm 0.00 in0.0 mm 0.06 in1.5 mm
03:35 AM 33.1°F0.6°C 32.4°F0.2°C 97% 1.0 mph WSW1.6 kmh WSW 5.0 mph8.0 kmh 29.64 in1003.7 mb 0.01 in0.3 mm 0.00 in0.0 mm 0.06 in1.5 mm
03:40 AM 33.1°F0.6°C 32.2°F0.1°C 97% 1.0 mph SW1.6 kmh SW 5.0 mph8.0 kmh 29.64 in1003.7 mb 0.01 in0.3 mm 0.00 in0.0 mm 0.06 in1.5 mm
03:45 AM 33.1°F0.6°C 32.2°F0.1°C 97% 2.0 mph SW3.2 kmh SW 8.0 mph12.9 kmh 29.64 in1003.7 mb 0.01 in0.3 mm 0.00 in0.0 mm 0.06 in1.5 mm
03:50 AM 33.1°F0.6°C 32.4°F0.2°C 97% 2.0 mph SW3.2 kmh SW 8.0 mph12.9 kmh 29.64 in1003.7 mb 0.00 in0.0 mm 0.00 in0.0 mm 0.06 in1.5 mm
03:55 AM 33.1°F0.6°C 32.4°F0.2°C 97% 1.0 mph WSW1.6 kmh WSW 6.0 mph9.7 kmh 29.64 in1003.7 mb 0.00 in0.0 mm 0.00 in0.0 mm 0.06 in1.5 mm
04:00 AM 33.1°F0.6°C 32.4°F0.2°C 97% 1.0 mph WSW1.6 kmh WSW 6.0 mph9.7 kmh 29.64 in1003.7 mb 0.00 in0.0 mm 0.00 in0.0 mm 0.06 in1.5 mm
04:05 AM 33.1°F0.6°C 32.4°F0.2°C 97% 1.0 mph WSW1.6 kmh WSW 6.0 mph9.7 kmh 29.64 in1003.7 mb 0.00 in0.0 mm 0.00 in0.0 mm 0.06 in1.5 mm
04:10 AM 33.1°F0.6°C 32.4°F0.2°C 97% 1.0 mph WSW1.6 kmh WSW 5.0 mph8.0 kmh 29.64 in1003.7 mb 0.00 in0.0 mm 0.00 in0.0 mm 0.06 in1.5 mm
04:15 AM 33.1°F0.6°C 32.4°F0.2°C 97% 1.0 mph SW1.6 kmh SW 6.0 mph9.7 kmh 29.64 in1003.7 mb 0.01 in0.3 mm 0.12 in3.0 mm 0.07 in1.8 mm
04:20 AM 33.1°F0.6°C 32.4°F0.2°C 97% 2.0 mph SW3.2 kmh SW 6.0 mph9.7 kmh 29.64 in1003.7 mb 0.01 in0.3 mm 0.00 in0.0 mm 0.07 in1.8 mm
04:25 AM 33.3°F0.7°C 32.4°F0.2°C 97% 1.0 mph SW1.6 kmh SW 5.0 mph8.0 kmh 29.64 in1003.7 mb 0.01 in0.3 mm 0.00 in0.0 mm 0.07 in1.8 mm
04:30 AM 33.3°F0.7°C 32.5°F0.3°C 97% 1.0 mph WSW1.6 kmh WSW 5.0 mph8.0 kmh 29.64 in1003.7 mb 0.01 in0.3 mm 0.00 in0.0 mm 0.07 in1.8 mm
04:35 AM 33.4°F0.8°C 32.7°F0.4°C 97% 1.0 mph SW1.6 kmh SW 6.0 mph9.7 kmh 29.63 in1003.4 mb 0.02 in0.5 mm 0.12 in3.0 mm 0.08 in2.0 mm
04:40 AM 33.4°F0.8°C 32.7°F0.4°C 97% 2.0 mph SW3.2 kmh SW 7.0 mph11.3 kmh 29.64 in1003.7 mb 0.02 in0.5 mm 0.00 in0.0 mm 0.08 in2.0 mm
04:45 AM 33.6°F0.9°C 32.9°F0.5°C 97% 2.0 mph SW3.2 kmh SW 7.0 mph11.3 kmh 29.64 in1003.7 mb 0.02 in0.5 mm 0.00 in0.0 mm 0.08 in2.0 mm
04:50 AM 33.6°F0.9°C 32.9°F0.5°C 97% 2.0 mph SW3.2 kmh SW 5.0 mph8.0 kmh 29.63 in1003.4 mb 0.02 in0.5 mm 0.00 in0.0 mm 0.09 in2.3 mm
04:55 AM 33.6°F0.9°C 32.9°F0.5°C 97% 2.0 mph SW3.2 kmh SW 5.0 mph8.0 kmh 29.63 in1003.4 mb 0.02 in0.5 mm 0.00 in0.0 mm 0.09 in2.3 mm
05:00 AM 33.4°F0.8°C 32.7°F0.4°C 97% 2.0 mph SW3.2 kmh SW 6.0 mph9.7 kmh 29.63 in1003.4 mb 0.02 in0.5 mm 0.00 in0.0 mm 0.09 in2.3 mm
05:05 AM 33.6°F0.9°C 32.9°F0.5°C 97% 2.0 mph SW3.2 kmh SW 7.0 mph11.3 kmh 29.63 in1003.4 mb 0.02 in0.5 mm 0.00 in0.0 mm 0.09 in2.3 mm
05:10 AM 33.6°F0.9°C 32.9°F0.5°C 97% 2.0 mph SW3.2 kmh SW 7.0 mph11.3 kmh 29.63 in1003.4 mb 0.02 in0.5 mm 0.00 in0.0 mm 0.09 in2.3 mm
05:15 AM 33.6°F0.9°C 33.1°F0.6°C 98% 2.0 mph SW3.2 kmh SW 5.0 mph8.0 kmh 29.63 in1003.4 mb 0.02 in0.5 mm 0.00 in0.0 mm 0.09 in2.3 mm
05:20 AM 33.6°F0.9°C 33.3°F0.7°C 98% 2.0 mph SW3.2 kmh SW 6.0 mph9.7 kmh 29.63 in1003.4 mb 0.02 in0.5 mm 0.00 in0.0 mm 0.09 in2.3 mm
05:25 AM 33.6°F0.9°C 32.9°F0.5°C 97% 1.0 mph SW1.6 kmh SW 8.0 mph12.9 kmh 29.63 in1003.4 mb 0.02 in0.5 mm 0.00 in0.0 mm 0.09 in2.3 mm
05:30 AM 33.6°F0.9°C 33.3°F0.7°C 98% 2.0 mph SW3.2 kmh SW 8.0 mph12.9 kmh 29.63 in1003.4 mb 0.02 in0.5 mm 0.00 in0.0 mm 0.09 in2.3 mm
05:35 AM 33.6°F0.9°C 33.3°F0.7°C 98% 2.0 mph SW3.2 kmh SW 5.0 mph8.0 kmh 29.63 in1003.4 mb 0.02 in0.5 mm 0.00 in0.0 mm 0.09 in2.3 mm
05:40 AM 33.6°F0.9°C 33.3°F0.7°C 98% 1.0 mph SW1.6 kmh SW 6.0 mph9.7 kmh 29.63 in1003.4 mb 0.02 in0.5 mm 0.00 in0.0 mm 0.10 in2.5 mm
05:45 AM 33.6°F0.9°C 33.3°F0.7°C 98% 3.0 mph SW4.8 kmh SW 6.0 mph9.7 kmh 29.63 in1003.4 mb 0.02 in0.5 mm 0.00 in0.0 mm 0.10 in2.5 mm
05:50 AM 33.6°F0.9°C 33.1°F0.6°C 98% 3.0 mph SW4.8 kmh SW 7.0 mph11.3 kmh 29.63 in1003.4 mb 0.02 in0.5 mm 0.00 in0.0 mm 0.10 in2.5 mm
05:55 AM 33.6°F0.9°C 33.1°F0.6°C 98% 3.0 mph SW4.8 kmh SW 7.0 mph11.3 kmh 29.63 in1003.4 mb 0.02 in0.5 mm 0.00 in0.0 mm 0.10 in2.5 mm
06:00 AM 33.6°F0.9°C 33.1°F0.6°C 98% 3.0 mph SW4.8 kmh SW 7.0 mph11.3 kmh 29.63 in1003.4 mb 0.02 in0.5 mm 0.00 in0.0 mm 0.11 in2.8 mm
06:05 AM 33.6°F0.9°C 33.1°F0.6°C 98% 3.0 mph SW4.8 kmh SW 9.0 mph14.5 kmh 29.63 in1003.4 mb 0.02 in0.5 mm 0.00 in0.0 mm 0.11 in2.8 mm
06:10 AM 33.4°F0.8°C 32.7°F0.4°C 97% 3.0 mph SW4.8 kmh SW 9.0 mph14.5 kmh 29.63 in1003.4 mb 0.02 in0.5 mm 0.00 in0.0 mm 0.11 in2.8 mm
06:15 AM 33.4°F0.8°C 32.7°F0.4°C 97% 2.0 mph SW3.2 kmh SW 8.0 mph12.9 kmh 29.63 in1003.4 mb 0.02 in0.5 mm 0.00 in0.0 mm 0.11 in2.8 mm
06:20 AM 33.3°F0.7°C 32.5°F0.3°C 97% 3.0 mph SW4.8 kmh SW 8.0 mph12.9 kmh 29.63 in1003.4 mb 0.02 in0.5 mm 0.00 in0.0 mm 0.11 in2.8 mm
06:25 AM 33.3°F0.7°C 32.4°F0.2°C 97% 2.0 mph SW3.2 kmh SW 7.0 mph11.3 kmh 29.63 in1003.4 mb 0.02 in0.5 mm 0.00 in0.0 mm 0.11 in2.8 mm
06:30 AM 33.1°F0.6°C 32.4°F0.2°C 97% 2.0 mph SW3.2 kmh SW 7.0 mph11.3 kmh 29.63 in1003.4 mb 0.02 in0.5 mm 0.00 in0.0 mm 0.11 in2.8 mm
06:35 AM 33.1°F0.6°C 32.4°F0.2°C 97% 2.0 mph SW3.2 kmh SW 5.0 mph8.0 kmh 29.63 in1003.4 mb 0.02 in0.5 mm 0.00 in0.0 mm 0.11 in2.8 mm
06:40 AM 33.1°F0.6°C 32.4°F0.2°C 97% 2.0 mph SW3.2 kmh SW 7.0 mph11.3 kmh 29.63 in1003.4 mb 0.01 in0.3 mm 0.00 in0.0 mm 0.11 in2.8 mm
06:45 AM 33.1°F0.6°C 32.4°F0.2°C 97% 2.0 mph SW3.2 kmh SW 7.0 mph11.3 kmh 29.63 in1003.4 mb 0.02 in0.5 mm 0.12 in3.0 mm 0.12 in3.0 mm
06:50 AM 33.1°F0.6°C 32.4°F0.2°C 97% 2.0 mph SW3.2 kmh SW 5.0 mph8.0 kmh 29.63 in1003.4 mb 0.02 in0.5 mm 0.00 in0.0 mm 0.12 in3.0 mm
06:55 AM 33.1°F0.6°C 32.4°F0.2°C 97% 2.0 mph SW3.2 kmh SW 7.0 mph11.3 kmh 29.63 in1003.4 mb 0.02 in0.5 mm 0.00 in0.0 mm 0.12 in3.0 mm
07:00 AM 33.1°F0.6°C 32.2°F0.1°C 97% 2.0 mph SW3.2 kmh SW 7.0 mph11.3 kmh 29.63 in1003.4 mb 0.01 in0.3 mm 0.00 in0.0 mm 0.12 in3.0 mm
07:05 AM 33.1°F0.6°C 32.2°F0.1°C 97% 1.0 mph SW1.6 kmh SW 4.0 mph6.4 kmh 29.63 in1003.4 mb 0.01 in0.3 mm 0.00 in0.0 mm 0.12 in3.0 mm
07:10 AM 32.9°F0.5°C 32.2°F0.1°C 97% 1.0 mph SW1.6 kmh SW 3.0 mph4.8 kmh 29.63 in1003.4 mb 0.01 in0.3 mm 0.00 in0.0 mm 0.12 in3.0 mm
07:15 AM 32.9°F0.5°C 32.2°F0.1°C 97% 1.0 mph SW1.6 kmh SW 5.0 mph8.0 kmh 29.63 in1003.4 mb 0.01 in0.3 mm 0.00 in0.0 mm 0.12 in3.0 mm
07:20 AM 32.9°F0.5°C 32.2°F0.1°C 97% 1.0 mph SW1.6 kmh SW 5.0 mph8.0 kmh 29.63 in1003.4 mb 0.01 in0.3 mm 0.00 in0.0 mm 0.12 in3.0 mm
07:25 AM 32.9°F0.5°C 32.2°F0.1°C 97% 1.0 mph SW1.6 kmh SW 5.0 mph8.0 kmh 29.63 in1003.4 mb 0.01 in0.3 mm 0.00 in0.0 mm 0.12 in3.0 mm
07:30 AM 33.1°F0.6°C 32.5°F0.3°C 98% 1.0 mph SW1.6 kmh SW 6.0 mph9.7 kmh 29.63 in1003.4 mb 0.01 in0.3 mm 0.00 in0.0 mm 0.12 in3.0 mm
07:35 AM 33.1°F0.6°C 32.5°F0.3°C 98% 1.0 mph SW1.6 kmh SW 6.0 mph9.7 kmh 29.63 in1003.4 mb 0.01 in0.3 mm 0.00 in0.0 mm 0.12 in3.0 mm
07:40 AM 33.1°F0.6°C 32.5°F0.3°C 98% 1.0 mph SW1.6 kmh SW 5.0 mph8.0 kmh 29.62 in1003.0 mb 0.01 in0.3 mm 0.00 in0.0 mm 0.12 in3.0 mm
07:45 AM 33.3°F0.7°C 32.7°F0.4°C 98% 2.0 mph SW3.2 kmh SW 7.0 mph11.3 kmh 29.63 in1003.4 mb 0.01 in0.3 mm 0.00 in0.0 mm 0.13 in3.3 mm
07:50 AM 33.3°F0.7°C 32.7°F0.4°C 98% 2.0 mph SW3.2 kmh SW 7.0 mph11.3 kmh 29.63 in1003.4 mb 0.01 in0.3 mm 0.00 in0.0 mm 0.13 in3.3 mm
07:55 AM 33.3°F0.7°C 32.7°F0.4°C 98% 1.0 mph SW1.6 kmh SW 6.0 mph9.7 kmh 29.62 in1003.0 mb 0.01 in0.3 mm 0.00 in0.0 mm 0.13 in3.3 mm
08:00 AM 33.3°F0.7°C 32.7°F0.4°C 98% 2.0 mph SW3.2 kmh SW 5.0 mph8.0 kmh 29.63 in1003.4 mb 0.01 in0.3 mm 0.00 in0.0 mm 0.13 in3.3 mm
08:05 AM 33.4°F0.8°C 32.9°F0.5°C 98% 2.0 mph SW3.2 kmh SW 5.0 mph8.0 kmh 29.63 in1003.4 mb 0.02 in0.5 mm 0.12 in3.0 mm 0.13 in3.3 mm
08:10 AM 33.4°F0.8°C 32.9°F0.5°C 98% 1.0 mph SW1.6 kmh SW 5.0 mph8.0 kmh 29.63 in1003.4 mb 0.02 in0.5 mm 0.00 in0.0 mm 0.13 in3.3 mm
08:15 AM 33.4°F0.8°C 33.1°F0.6°C 98% 1.0 mph SW1.6 kmh SW 5.0 mph8.0 kmh 29.63 in1003.4 mb 0.02 in0.5 mm 0.00 in0.0 mm 0.13 in3.3 mm
08:20 AM 33.6°F0.9°C 33.1°F0.6°C 98% 1.0 mph SW1.6 kmh SW 4.0 mph6.4 kmh 29.63 in1003.4 mb 0.02 in0.5 mm 0.00 in0.0 mm 0.13 in3.3 mm
08:25 AM 33.6°F0.9°C 33.1°F0.6°C 98% 2.0 mph SW3.2 kmh SW 6.0 mph9.7 kmh 29.63 in1003.4 mb 0.02 in0.5 mm 0.00 in0.0 mm 0.13 in3.3 mm
08:30 AM 33.6°F0.9°C 33.3°F0.7°C 98% 3.0 mph SW4.8 kmh SW 8.0 mph12.9 kmh 29.62 in1003.0 mb 0.02 in0.5 mm 0.00 in0.0 mm 0.14 in3.6 mm
08:35 AM 33.6°F0.9°C 33.3°F0.7°C 98% 3.0 mph SW4.8 kmh SW 10.0 mph16.1 kmh 29.62 in1003.0 mb 0.02 in0.5 mm 0.00 in0.0 mm 0.14 in3.6 mm
08:40 AM 33.8°F1.0°C 33.3°F0.7°C 98% 3.0 mph SW4.8 kmh SW 10.0 mph16.1 kmh 29.62 in1003.0 mb 0.02 in0.5 mm 0.00 in0.0 mm 0.14 in3.6 mm
08:45 AM 33.8°F1.0°C 33.3°F0.7°C 98% 3.0 mph SW4.8 kmh SW 9.0 mph14.5 kmh 29.62 in1003.0 mb 0.02 in0.5 mm 0.00 in0.0 mm 0.15 in3.8 mm
08:50 AM 34.0°F1.1°C 33.4°F0.8°C 98% 3.0 mph SW4.8 kmh SW 9.0 mph14.5 kmh 29.62 in1003.0 mb 0.02 in0.5 mm 0.00 in0.0 mm 0.15 in3.8 mm
08:55 AM 34.0°F1.1°C 33.4°F0.8°C 98% 3.0 mph SW4.8 kmh SW 9.0 mph14.5 kmh 29.62 in1003.0 mb 0.02 in0.5 mm 0.00 in0.0 mm 0.15 in3.8 mm
09:00 AM 34.2°F1.2°C 33.6°F0.9°C 98% 3.0 mph SW4.8 kmh SW 7.0 mph11.3 kmh 29.62 in1003.0 mb 0.03 in0.8 mm 0.01 in0.3 mm 0.16 in4.1 mm
09:05 AM 34.2°F1.2°C 33.6°F0.9°C 98% 3.0 mph SW4.8 kmh SW 7.0 mph11.3 kmh 29.62 in1003.0 mb 0.02 in0.5 mm 0.00 in0.0 mm 0.16 in4.1 mm
09:10 AM 34.2°F1.2°C 33.6°F0.9°C 98% 3.0 mph SW4.8 kmh SW 7.0 mph11.3 kmh 29.62 in1003.0 mb 0.03 in0.8 mm 0.12 in3.0 mm 0.17 in4.3 mm
09:15 AM 34.2°F1.2°C 33.6°F0.9°C 98% 3.0 mph SW4.8 kmh SW 7.0 mph11.3 kmh 29.62 in1003.0 mb 0.03 in0.8 mm 0.00 in0.0 mm 0.17 in4.3 mm
09:20 AM 34.3°F1.3°C 33.8°F1.0°C 98% 3.0 mph SW4.8 kmh SW 9.0 mph14.5 kmh 29.62 in1003.0 mb 0.04 in1.0 mm 0.12 in3.0 mm 0.17 in4.3 mm
09:25 AM 34.2°F1.2°C 33.6°F0.9°C 98% 3.0 mph SW4.8 kmh SW 9.0 mph14.5 kmh 29.62 in1003.0 mb 0.03 in0.8 mm 0.00 in0.0 mm 0.17 in4.3 mm
09:30 AM 34.2°F1.2°C 33.6°F0.9°C 98% 3.0 mph SW4.8 kmh SW 11.0 mph17.7 kmh 29.61 in1002.7 mb 0.04 in1.0 mm 0.12 in3.0 mm 0.18 in4.6 mm
09:35 AM 34.2°F1.2°C 33.6°F0.9°C 98% 4.0 mph SW6.4 kmh SW 11.0 mph17.7 kmh 29.62 in1003.0 mb 0.04 in1.0 mm 0.00 in0.0 mm 0.18 in4.6 mm
09:40 AM 34.0°F1.1°C 33.4°F0.8°C 98% 4.0 mph SW6.4 kmh SW 11.0 mph17.7 kmh 29.61 in1002.7 mb 0.04 in1.0 mm 0.00 in0.0 mm 0.19 in4.8 mm
09:45 AM 34.0°F1.1°C 33.4°F0.8°C 98% 4.0 mph SW6.4 kmh SW 9.0 mph14.5 kmh 29.61 in1002.7 mb 0.04 in1.0 mm 0.00 in0.0 mm 0.19 in4.8 mm
09:50 AM 34.0°F1.1°C 33.4°F0.8°C 98% 3.0 mph SW4.8 kmh SW 11.0 mph17.7 kmh 29.61 in1002.7 mb 0.04 in1.0 mm 0.00 in0.0 mm 0.19 in4.8 mm
09:55 AM 34.0°F1.1°C 33.4°F0.8°C 98% 4.0 mph SW6.4 kmh SW 11.0 mph17.7 kmh 29.61 in1002.7 mb 0.05 in1.3 mm 0.12 in3.0 mm 0.20 in5.1 mm
10:00 AM 34.2°F1.2°C 33.6°F0.9°C 98% 4.0 mph SW6.4 kmh SW 10.0 mph16.1 kmh 29.61 in1002.7 mb 0.04 in1.0 mm 0.00 in0.0 mm 0.20 in5.1 mm
10:05 AM 34.2°F1.2°C 33.6°F0.9°C 98% 3.0 mph SW4.8 kmh SW 8.0 mph12.9 kmh 29.61 in1002.7 mb 0.04 in1.0 mm 0.00 in0.0 mm 0.20 in5.1 mm
10:10 AM 34.2°F1.2°C 33.6°F0.9°C 98% 3.0 mph SW4.8 kmh SW 8.0 mph12.9 kmh 29.61 in1002.7 mb 0.03 in0.8 mm 0.00 in0.0 mm 0.20 in5.1 mm
10:15 AM 34.2°F1.2°C 33.6°F0.9°C 98% 3.0 mph SW4.8 kmh SW 8.0 mph12.9 kmh 29.61 in1002.7 mb 0.04 in1.0 mm 0.12 in3.0 mm 0.20 in5.1 mm
10:20 AM 34.2°F1.2°C 33.6°F0.9°C 98% 3.0 mph SW4.8 kmh SW 8.0 mph12.9 kmh 29.61 in1002.7 mb 0.03 in0.8 mm 0.00 in0.0 mm 0.20 in5.1 mm
10:25 AM 34.3°F1.3°C 34.0°F1.1°C 98% 4.0 mph SW6.4 kmh SW 9.0 mph14.5 kmh 29.60 in1002.4 mb 0.03 in0.8 mm 0.00 in0.0 mm 0.20 in5.1 mm
10:30 AM 34.3°F1.3°C 34.0°F1.1°C 98% 4.0 mph SW6.4 kmh SW 9.0 mph14.5 kmh 29.60 in1002.4 mb 0.02 in0.5 mm 0.00 in0.0 mm 0.20 in5.1 mm
10:35 AM 34.5°F1.4°C 34.2°F1.2°C 98% 4.0 mph SW6.4 kmh SW 11.0 mph17.7 kmh 29.59 in1002.0 mb 0.02 in0.5 mm 0.00 in0.0 mm 0.20 in5.1 mm
10:40 AM 34.7°F1.5°C 34.2°F1.2°C 98% 4.0 mph SW6.4 kmh SW 11.0 mph17.7 kmh 29.59 in1002.0 mb 0.02 in0.5 mm 0.00 in0.0 mm 0.20 in5.1 mm
10:45 AM 34.9°F1.6°C 34.3°F1.3°C 98% 4.0 mph SW6.4 kmh SW 10.0 mph16.1 kmh 29.59 in1002.0 mb 0.02 in0.5 mm 0.00 in0.0 mm 0.21 in5.3 mm
10:50 AM 34.9°F1.6°C 34.3°F1.3°C 98% 4.0 mph SW6.4 kmh SW 10.0 mph16.1 kmh 29.59 in1002.0 mb 0.02 in0.5 mm 0.00 in0.0 mm 0.21 in5.3 mm
10:55 AM 35.1°F1.7°C 34.5°F1.4°C 98% 4.0 mph SW6.4 kmh SW 12.0 mph19.3 kmh 29.59 in1002.0 mb 0.02 in0.5 mm 0.00 in0.0 mm 0.21 in5.3 mm
11:00 AM 35.1°F1.7°C 34.5°F1.4°C 98% 5.0 mph SW8.0 kmh SW 12.0 mph19.3 kmh 29.58 in1001.7 mb 0.02 in0.5 mm 0.00 in0.0 mm 0.21 in5.3 mm
11:05 AM 35.1°F1.7°C 34.5°F1.4°C 98% 5.0 mph SW8.0 kmh SW 12.0 mph19.3 kmh 29.58 in1001.7 mb 0.02 in0.5 mm 0.00 in0.0 mm 0.21 in5.3 mm
11:10 AM 34.9°F1.6°C 34.3°F1.3°C 98% 5.0 mph SW8.0 kmh SW 12.0 mph19.3 kmh 29.58 in1001.7 mb 0.02 in0.5 mm 0.00 in0.0 mm 0.22 in5.6 mm
11:15 AM 34.9°F1.6°C 34.2°F1.2°C 97% 6.0 mph SW9.7 kmh SW 13.0 mph20.9 kmh 29.58 in1001.7 mb 0.02 in0.5 mm 0.00 in0.0 mm 0.22 in5.6 mm
11:20 AM 34.9°F1.6°C 34.0°F1.1°C 97% 6.0 mph SW9.7 kmh SW 13.0 mph20.9 kmh 29.58 in1001.7 mb 0.02 in0.5 mm 0.00 in0.0 mm 0.22 in5.6 mm
11:25 AM 34.9°F1.6°C 34.2°F1.2°C 97% 4.0 mph SW6.4 kmh SW 12.0 mph19.3 kmh 29.57 in1001.4 mb 0.02 in0.5 mm 0.00 in0.0 mm 0.23 in5.8 mm
11:30 AM 35.1°F1.7°C 34.2°F1.2°C 97% 3.0 mph WSW4.8 kmh WSW 11.0 mph17.7 kmh 29.57 in1001.4 mb 0.02 in0.5 mm 0.00 in0.0 mm 0.23 in5.8 mm
11:35 AM 35.1°F1.7°C 34.2°F1.2°C 97% 3.0 mph SW4.8 kmh SW 7.0 mph11.3 kmh 29.57 in1001.4 mb 0.02 in0.5 mm 0.00 in0.0 mm 0.23 in5.8 mm
11:40 AM 35.1°F1.7°C 34.3°F1.3°C 97% 4.0 mph SW6.4 kmh SW 10.0 mph16.1 kmh 29.56 in1001.0 mb 0.02 in0.5 mm 0.00 in0.0 mm 0.23 in5.8 mm
11:45 AM 35.2°F1.8°C 34.5°F1.4°C 97% 4.0 mph SW6.4 kmh SW 14.0 mph22.5 kmh 29.56 in1001.0 mb 0.02 in0.5 mm 0.00 in0.0 mm 0.23 in5.8 mm
11:50 AM 35.2°F1.8°C 34.5°F1.4°C 97% 4.0 mph SW6.4 kmh SW 14.0 mph22.5 kmh 29.56 in1001.0 mb 0.02 in0.5 mm 0.00 in0.0 mm 0.23 in5.8 mm
11:55 AM 35.2°F1.8°C 34.5°F1.4°C 97% 5.0 mph SW8.0 kmh SW 11.0 mph17.7 kmh 29.56 in1001.0 mb 0.02 in0.5 mm 0.00 in0.0 mm 0.23 in5.8 mm
12:00 PM 35.4°F1.9°C 34.7°F1.5°C 97% 4.0 mph SW6.4 kmh SW 12.0 mph19.3 kmh 29.56 in1001.0 mb 0.02 in0.5 mm 0.00 in0.0 mm 0.23 in5.8 mm
12:05 PM 35.4°F1.9°C 34.7°F1.5°C 97% 4.0 mph SW6.4 kmh SW 12.0 mph19.3 kmh 29.56 in1001.0 mb 0.01 in0.3 mm 0.00 in0.0 mm 0.23 in5.8 mm
12:10 PM 35.4°F1.9°C 34.7°F1.5°C 97% 4.0 mph SW6.4 kmh SW 10.0 mph16.1 kmh 29.55 in1000.7 mb 0.01 in0.3 mm 0.00 in0.0 mm 0.23 in5.8 mm
12:15 PM 35.4°F1.9°C 34.7°F1.5°C 97% 4.0 mph SW6.4 kmh SW 10.0 mph16.1 kmh 29.55 in1000.7 mb 0.01 in0.3 mm 0.00 in0.0 mm 0.23 in5.8 mm
12:20 PM 35.4°F1.9°C 34.7°F1.5°C 97% 4.0 mph SW6.4 kmh SW 9.0 mph14.5 kmh 29.55 in1000.7 mb 0.01 in0.3 mm 0.00 in0.0 mm 0.23 in5.8 mm
12:25 PM 35.4°F1.9°C 34.7°F1.5°C 97% 4.0 mph SW6.4 kmh SW 9.0 mph14.5 kmh 29.55 in1000.7 mb 0.00 in0.0 mm 0.00 in0.0 mm 0.23 in5.8 mm
12:30 PM 35.8°F2.1°C 34.9°F1.6°C 97% 4.0 mph SW6.4 kmh SW 9.0 mph14.5 kmh 29.54 in1000.3 mb 0.00 in0.0 mm 0.00 in0.0 mm 0.23 in5.8 mm
12:35 PM 35.8°F2.1°C 34.9°F1.6°C 97% 4.0 mph SW6.4 kmh SW 10.0 mph16.1 kmh 29.54 in1000.3 mb 0.00 in0.0 mm 0.00 in0.0 mm 0.23 in5.8 mm
12:40 PM 35.8°F2.1°C 35.1°F1.7°C 97% 5.0 mph SW8.0 kmh SW 12.0 mph19.3 kmh 29.54 in1000.3 mb 0.00 in0.0 mm 0.00 in0.0 mm 0.23 in5.8 mm
12:45 PM 36.0°F2.2°C 35.1°F1.7°C 97% 5.0 mph SW8.0 kmh SW 12.0 mph19.3 kmh 29.54 in1000.3 mb 0.00 in0.0 mm 0.00 in0.0 mm 0.23 in5.8 mm
12:50 PM 36.0°F2.2°C 35.1°F1.7°C 97% 4.0 mph SW6.4 kmh SW 12.0 mph19.3 kmh 29.53 in1000.0 mb 0.00 in0.0 mm 0.00 in0.0 mm 0.23 in5.8 mm
12:55 PM 36.0°F2.2°C 35.2°F1.8°C 97% 4.0 mph SW6.4 kmh SW 9.0 mph14.5 kmh 29.53 in1000.0 mb 0.00 in0.0 mm 0.00 in0.0 mm 0.23 in5.8 mm
01:00 PM 36.0°F2.2°C 35.2°F1.8°C 97% 4.0 mph SW6.4 kmh SW 9.0 mph14.5 kmh 29.53 in1000.0 mb 0.00 in0.0 mm 0.00 in0.0 mm 0.23 in5.8 mm
01:05 PM 36.0°F2.2°C 35.2°F1.8°C 97% 4.0 mph SW6.4 kmh SW 10.0 mph16.1 kmh 29.52 in999.7 mb 0.00 in0.0 mm 0.00 in0.0 mm 0.23 in5.8 mm
01:10 PM 36.0°F2.2°C 35.2°F1.8°C 97% 4.0 mph SW6.4 kmh SW 10.0 mph16.1 kmh 29.52 in999.7 mb 0.00 in0.0 mm 0.00 in0.0 mm 0.23 in5.8 mm
01:15 PM 36.1°F2.3°C 35.4°F1.9°C 97% 3.0 mph SW4.8 kmh SW 9.0 mph14.5 kmh 29.52 in999.7 mb 0.00 in0.0 mm 0.00 in0.0 mm 0.23 in5.8 mm
01:20 PM 36.1°F2.3°C 35.4°F1.9°C 97% 3.0 mph SW4.8 kmh SW 11.0 mph17.7 kmh 29.51 in999.3 mb 0.00 in0.0 mm 0.00 in0.0 mm 0.23 in5.8 mm
01:25 PM 36.1°F2.3°C 35.4°F1.9°C 97% 4.0 mph SW6.4 kmh SW 11.0 mph17.7 kmh 29.51 in999.3 mb 0.00 in0.0 mm 0.00 in0.0 mm 0.23 in5.8 mm
01:30 PM 36.1°F2.3°C 35.2°F1.8°C 96% 4.0 mph SW6.4 kmh SW 11.0 mph17.7 kmh 29.51 in999.3 mb 0.00 in0.0 mm 0.00 in0.0 mm 0.23 in5.8 mm
01:35 PM 36.3°F2.4°C 35.2°F1.8°C 96% 4.0 mph SW6.4 kmh SW 12.0 mph19.3 kmh 29.51 in999.3 mb 0.00 in0.0 mm 0.00 in0.0 mm 0.23 in5.8 mm
01:40 PM 36.3°F2.4°C 35.2°F1.8°C 96% 4.0 mph SW6.4 kmh SW 12.0 mph19.3 kmh 29.50 in999.0 mb 0.00 in0.0 mm 0.00 in0.0 mm 0.23 in5.8 mm
01:45 PM 36.3°F2.4°C 35.2°F1.8°C 96% 4.0 mph SW6.4 kmh SW 11.0 mph17.7 kmh 29.50 in999.0 mb 0.00 in0.0 mm 0.00 in0.0 mm 0.23 in5.8 mm
01:50 PM 36.3°F2.4°C 35.4°F1.9°C 96% 3.0 mph SW4.8 kmh SW 11.0 mph17.7 kmh 29.50 in999.0 mb 0.00 in0.0 mm 0.00 in0.0 mm 0.23 in5.8 mm
01:55 PM 36.3°F2.4°C 35.4°F1.9°C 96% 4.0 mph SW6.4 kmh SW 11.0 mph17.7 kmh 29.50 in999.0 mb 0.00 in0.0 mm 0.00 in0.0 mm 0.23 in5.8 mm
02:00 PM 36.5°F2.5°C 35.2°F1.8°C 95% 5.0 mph SW8.0 kmh SW 12.0 mph19.3 kmh 29.49 in998.6 mb 0.00 in0.0 mm 0.00 in0.0 mm 0.23 in5.8 mm
02:05 PM 36.5°F2.5°C 35.2°F1.8°C 95% 5.0 mph SW8.0 kmh SW 12.0 mph19.3 kmh 29.49 in998.6 mb 0.00 in0.0 mm 0.00 in0.0 mm 0.23 in5.8 mm
02:10 PM 36.5°F2.5°C 35.2°F1.8°C 95% 5.0 mph SW8.0 kmh SW 12.0 mph19.3 kmh 29.49 in998.6 mb 0.00 in0.0 mm 0.00 in0.0 mm 0.23 in5.8 mm
02:15 PM 36.7°F2.6°C 35.2°F1.8°C 95% 6.0 mph SW9.7 kmh SW 12.0 mph19.3 kmh 29.48 in998.3 mb 0.00 in0.0 mm 0.00 in0.0 mm 0.23 in5.8 mm
02:20 PM 36.7°F2.6°C 35.2°F1.8°C 95% 6.0 mph SW9.7 kmh SW 12.0 mph19.3 kmh 29.48 in998.3 mb 0.00 in0.0 mm 0.00 in0.0 mm 0.23 in5.8 mm
02:25 PM 36.7°F2.6°C 35.1°F1.7°C 94% 6.0 mph SW9.7 kmh SW 14.0 mph22.5 kmh 29.48 in998.3 mb 0.00 in0.0 mm 0.00 in0.0 mm 0.23 in5.8 mm
02:30 PM 36.7°F2.6°C 35.1°F1.7°C 94% 6.0 mph SW9.7 kmh SW 14.0 mph22.5 kmh 29.48 in998.3 mb 0.00 in0.0 mm 0.00 in0.0 mm 0.23 in5.8 mm
02:35 PM 36.7°F2.6°C 35.1°F1.7°C 94% 6.0 mph SW9.7 kmh SW 11.0 mph17.7 kmh 29.47 in998.0 mb 0.00 in0.0 mm 0.00 in0.0 mm 0.23 in5.8 mm
02:40 PM 36.7°F2.6°C 35.1°F1.7°C 94% 6.0 mph SW9.7 kmh SW 12.0 mph19.3 kmh 29.47 in998.0 mb 0.00 in0.0 mm 0.00 in0.0 mm 0.23 in5.8 mm
02:45 PM 36.7°F2.6°C 35.1°F1.7°C 94% 6.0 mph SW9.7 kmh SW 13.0 mph20.9 kmh 29.46 in997.6 mb 0.00 in0.0 mm 0.00 in0.0 mm 0.23 in5.8 mm
02:50 PM 36.7°F2.6°C 35.1°F1.7°C 94% 6.0 mph SW9.7 kmh SW 13.0 mph20.9 kmh 29.46 in997.6 mb 0.00 in0.0 mm 0.00 in0.0 mm 0.23 in5.8 mm
02:55 PM 36.9°F2.7°C 35.2°F1.8°C 94% 6.0 mph SW9.7 kmh SW 14.0 mph22.5 kmh 29.46 in997.6 mb 0.00 in0.0 mm 0.00 in0.0 mm 0.23 in5.8 mm
03:00 PM 36.9°F2.7°C 35.2°F1.8°C 94% 6.0 mph SW9.7 kmh SW 14.0 mph22.5 kmh 29.46 in997.6 mb 0.00 in0.0 mm 0.00 in0.0 mm 0.23 in5.8 mm
03:05 PM 36.9°F2.7°C 35.4°F1.9°C 94% 6.0 mph SW9.7 kmh SW 14.0 mph22.5 kmh 29.45 in997.3 mb 0.00 in0.0 mm 0.00 in0.0 mm 0.23 in5.8 mm
03:10 PM 36.9°F2.7°C 35.4°F1.9°C 94% 8.0 mph SW12.9 kmh SW 17.0 mph27.4 kmh 29.45 in997.3 mb 0.00 in0.0 mm 0.00 in0.0 mm 0.23 in5.8 mm
03:15 PM 36.9°F2.7°C 35.1°F1.7°C 93% 8.0 mph SW12.9 kmh SW 17.0 mph27.4 kmh 29.45 in997.3 mb 0.00 in0.0 mm 0.00 in0.0 mm 0.23 in5.8 mm
03:20 PM 37.0°F2.8°C 35.2°F1.8°C 93% 8.0 mph SW12.9 kmh SW 17.0 mph27.4 kmh 29.44 in997.0 mb 0.00 in0.0 mm 0.00 in0.0 mm 0.23 in5.8 mm
03:25 PM 37.0°F2.8°C 35.2°F1.8°C 93% 8.0 mph SW12.9 kmh SW 17.0 mph27.4 kmh 29.44 in997.0 mb 0.00 in0.0 mm 0.00 in0.0 mm 0.23 in5.8 mm
03:30 PM 37.0°F2.8°C 35.2°F1.8°C 93% 8.0 mph SW12.9 kmh SW 16.0 mph25.7 kmh 29.44 in997.0 mb 0.00 in0.0 mm 0.00 in0.0 mm 0.23 in5.8 mm
03:35 PM 36.9°F2.7°C 35.1°F1.7°C 93% 6.0 mph SW9.7 kmh SW 17.0 mph27.4 kmh 29.43 in996.6 mb 0.00 in0.0 mm 0.00 in0.0 mm 0.23 in5.8 mm
03:40 PM 36.9°F2.7°C 35.1°F1.7°C 93% 6.0 mph SW9.7 kmh SW 17.0 mph27.4 kmh 29.43 in996.6 mb 0.00 in0.0 mm 0.00 in0.0 mm 0.23 in5.8 mm
03:45 PM 36.9°F2.7°C 35.1°F1.7°C 93% 7.0 mph SW11.3 kmh SW 13.0 mph20.9 kmh 29.43 in996.6 mb 0.00 in0.0 mm 0.00 in0.0 mm 0.23 in5.8 mm
03:50 PM 36.9°F2.7°C 35.1°F1.7°C 93% 6.0 mph SW9.7 kmh SW 14.0 mph22.5 kmh 29.43 in996.6 mb 0.00 in0.0 mm 0.00 in0.0 mm 0.23 in5.8 mm
03:55 PM 36.9°F2.7°C 35.1°F1.7°C 93% 6.0 mph SW9.7 kmh SW 14.0 mph22.5 kmh 29.42 in996.3 mb 0.00 in0.0 mm 0.00 in0.0 mm 0.23 in5.8 mm
04:05 PM 36.9°F2.7°C 35.1°F1.7°C 93% 7.0 mph SW11.3 kmh SW 13.0 mph20.9 kmh 29.42 in996.3 mb 0.00 in0.0 mm 0.00 in0.0 mm 0.23 in5.8 mm
04:10 PM 36.9°F2.7°C 35.1°F1.7°C 93% 7.0 mph SW11.3 kmh SW 18.0 mph29.0 kmh 29.41 in995.9 mb 0.00 in0.0 mm 0.00 in0.0 mm 0.23 in5.8 mm
04:15 PM 36.9°F2.7°C 35.1°F1.7°C 93% 7.0 mph SW11.3 kmh SW 18.0 mph29.0 kmh 29.41 in995.9 mb 0.00 in0.0 mm 0.00 in0.0 mm 0.23 in5.8 mm
04:20 PM 36.9°F2.7°C 34.9°F1.6°C 92% 9.0 mph SW14.5 kmh SW 19.0 mph30.6 kmh 29.41 in995.9 mb 0.00 in0.0 mm 0.00 in0.0 mm 0.23 in5.8 mm
04:25 PM 36.9°F2.7°C 34.9°F1.6°C 92% 8.0 mph SW12.9 kmh SW 19.0 mph30.6 kmh 29.40 in995.6 mb 0.00 in0.0 mm 0.00 in0.0 mm 0.23 in5.8 mm
04:30 PM 36.9°F2.7°C 34.9°F1.6°C 92% 7.0 mph SW11.3 kmh SW 17.0 mph27.4 kmh 29.40 in995.6 mb 0.00 in0.0 mm 0.00 in0.0 mm 0.23 in5.8 mm
04:35 PM 37.0°F2.8°C 34.9°F1.6°C 92% 7.0 mph SW11.3 kmh SW 17.0 mph27.4 kmh 29.40 in995.6 mb 0.00 in0.0 mm 0.00 in0.0 mm 0.23 in5.8 mm
04:40 PM 36.9°F2.7°C 34.9°F1.6°C 92% 7.0 mph SW11.3 kmh SW 19.0 mph30.6 kmh 29.39 in995.3 mb 0.00 in0.0 mm 0.00 in0.0 mm 0.23 in5.8 mm
04:45 PM 36.9°F2.7°C 34.9°F1.6°C 92% 7.0 mph SW11.3 kmh SW 19.0 mph30.6 kmh 29.39 in995.3 mb 0.00 in0.0 mm 0.00 in0.0 mm 0.23 in5.8 mm
04:50 PM 36.9°F2.7°C 34.9°F1.6°C 92% 7.0 mph SW11.3 kmh SW 16.0 mph25.7 kmh 29.39 in995.3 mb 0.00 in0.0 mm 0.00 in0.0 mm 0.23 in5.8 mm
04:55 PM 36.9°F2.7°C 34.7°F1.5°C 92% 5.0 mph SW8.0 kmh SW 16.0 mph25.7 kmh 29.39 in995.3 mb 0.00 in0.0 mm 0.00 in0.0 mm 0.23 in5.8 mm
05:00 PM 36.9°F2.7°C 34.7°F1.5°C 92% 5.0 mph SW8.0 kmh SW 12.0 mph19.3 kmh 29.38 in994.9 mb 0.00 in0.0 mm 0.00 in0.0 mm 0.23 in5.8 mm
05:05 PM 36.9°F2.7°C 34.9°F1.6°C 92% 7.0 mph SW11.3 kmh SW 16.0 mph25.7 kmh 29.38 in994.9 mb 0.00 in0.0 mm 0.00 in0.0 mm 0.23 in5.8 mm
05:10 PM 36.9°F2.7°C 34.9°F1.6°C 92% 6.0 mph SW9.7 kmh SW 16.0 mph25.7 kmh 29.38 in994.9 mb 0.00 in0.0 mm 0.00 in0.0 mm 0.23 in5.8 mm
05:15 PM 36.9°F2.7°C 34.9°F1.6°C 92% 7.0 mph SW11.3 kmh SW 17.0 mph27.4 kmh 29.37 in994.6 mb 0.00 in0.0 mm 0.00 in0.0 mm 0.23 in5.8 mm
05:20 PM 37.0°F2.8°C 34.9°F1.6°C 92% 9.0 mph SW14.5 kmh SW 19.0 mph30.6 kmh 29.37 in994.6 mb 0.00 in0.0 mm 0.00 in0.0 mm 0.23 in5.8 mm
05:25 PM 36.9°F2.7°C 34.9°F1.6°C 92% 8.0 mph SW12.9 kmh SW 19.0 mph30.6 kmh 29.36 in994.2 mb 0.00 in0.0 mm 0.00 in0.0 mm 0.23 in5.8 mm
05:30 PM 37.0°F2.8°C 34.9°F1.6°C 92% 8.0 mph SW12.9 kmh SW 19.0 mph30.6 kmh 29.36 in994.2 mb 0.00 in0.0 mm 0.00 in0.0 mm 0.23 in5.8 mm
05:35 PM 37.0°F2.8°C 35.1°F1.7°C 92% 9.0 mph SW14.5 kmh SW 19.0 mph30.6 kmh 29.36 in994.2 mb 0.00 in0.0 mm 0.00 in0.0 mm 0.23 in5.8 mm
05:40 PM 37.0°F2.8°C 35.1°F1.7°C 92% 8.0 mph SW12.9 kmh SW 17.0 mph27.4 kmh 29.35 in993.9 mb 0.00 in0.0 mm 0.00 in0.0 mm 0.23 in5.8 mm
05:45 PM 37.0°F2.8°C 34.9°F1.6°C 92% 7.0 mph SW11.3 kmh SW 17.0 mph27.4 kmh 29.35 in993.9 mb 0.00 in0.0 mm 0.00 in0.0 mm 0.23 in5.8 mm
05:50 PM 37.0°F2.8°C 34.9°F1.6°C 92% 7.0 mph SW11.3 kmh SW 14.0 mph22.5 kmh 29.34 in993.6 mb 0.00 in0.0 mm 0.00 in0.0 mm 0.23 in5.8 mm
05:55 PM 37.0°F2.8°C 34.9°F1.6°C 92% 7.0 mph SW11.3 kmh SW 14.0 mph22.5 kmh 29.34 in993.6 mb 0.00 in0.0 mm 0.00 in0.0 mm 0.23 in5.8 mm
06:00 PM 37.0°F2.8°C 34.9°F1.6°C 92% 7.0 mph SW11.3 kmh SW 18.0 mph29.0 kmh 29.33 in993.2 mb 0.00 in0.0 mm 0.00 in0.0 mm 0.23 in5.8 mm
06:05 PM 36.9°F2.7°C 34.9°F1.6°C 92% 8.0 mph SW12.9 kmh SW 18.0 mph29.0 kmh 29.33 in993.2 mb 0.00 in0.0 mm 0.00 in0.0 mm 0.23 in5.8 mm
06:10 PM 36.9°F2.7°C 34.9°F1.6°C 92% 8.0 mph SW12.9 kmh SW 14.0 mph22.5 kmh 29.32 in992.9 mb 0.00 in0.0 mm 0.00 in0.0 mm 0.23 in5.8 mm
06:15 PM 36.9°F2.7°C 34.9°F1.6°C 93% 8.0 mph SW12.9 kmh SW 16.0 mph25.7 kmh 29.32 in992.9 mb 0.00 in0.0 mm 0.00 in0.0 mm 0.23 in5.8 mm
06:20 PM 36.9°F2.7°C 34.9°F1.6°C 93% 8.0 mph SW12.9 kmh SW 19.0 mph30.6 kmh 29.32 in992.9 mb 0.00 in0.0 mm 0.00 in0.0 mm 0.23 in5.8 mm
06:25 PM 36.7°F2.6°C 34.9°F1.6°C 93% 8.0 mph SW12.9 kmh SW 19.0 mph30.6 kmh 29.31 in992.6 mb 0.00 in0.0 mm 0.00 in0.0 mm 0.23 in5.8 mm
06:30 PM 36.7°F2.6°C 34.9°F1.6°C 93% 7.0 mph SW11.3 kmh SW 16.0 mph25.7 kmh 29.31 in992.6 mb 0.00 in0.0 mm 0.00 in0.0 mm 0.23 in5.8 mm
06:35 PM 36.7°F2.6°C 34.9°F1.6°C 93% 7.0 mph SW11.3 kmh SW 16.0 mph25.7 kmh 29.30 in992.2 mb 0.00 in0.0 mm 0.00 in0.0 mm 0.23 in5.8 mm
06:40 PM 36.7°F2.6°C 34.7°F1.5°C 93% 7.0 mph SW11.3 kmh SW 15.0 mph24.1 kmh 29.31 in992.6 mb 0.00 in0.0 mm 0.00 in0.0 mm 0.23 in5.8 mm
06:45 PM 36.7°F2.6°C 34.7°F1.5°C 93% 8.0 mph SW12.9 kmh SW 13.0 mph20.9 kmh 29.30 in992.2 mb 0.00 in0.0 mm 0.00 in0.0 mm 0.23 in5.8 mm
06:50 PM 36.5°F2.5°C 34.7°F1.5°C 93% 7.0 mph SW11.3 kmh SW 13.0 mph20.9 kmh 29.30 in992.2 mb 0.00 in0.0 mm 0.00 in0.0 mm 0.23 in5.8 mm
06:55 PM 36.5°F2.5°C 34.7°F1.5°C 93% 7.0 mph SW11.3 kmh SW 14.0 mph22.5 kmh 29.29 in991.9 mb 0.01 in0.3 mm 0.12 in3.0 mm 0.24 in6.1 mm
07:00 PM 36.3°F2.4°C 34.5°F1.4°C 93% 7.0 mph SW11.3 kmh SW 14.0 mph22.5 kmh 29.29 in991.9 mb 0.01 in0.3 mm 0.00 in0.0 mm 0.24 in6.1 mm
07:05 PM 36.5°F2.5°C 34.9°F1.6°C 94% 7.0 mph SW11.3 kmh SW 15.0 mph24.1 kmh 29.29 in991.9 mb 0.01 in0.3 mm 0.00 in0.0 mm 0.24 in6.1 mm
07:10 PM 36.5°F2.5°C 34.9°F1.6°C 94% 8.0 mph SW12.9 kmh SW 15.0 mph24.1 kmh 29.28 in991.5 mb 0.01 in0.3 mm 0.00 in0.0 mm 0.24 in6.1 mm
07:15 PM 36.5°F2.5°C 34.9°F1.6°C 94% 8.0 mph SW12.9 kmh SW 17.0 mph27.4 kmh 29.28 in991.5 mb 0.01 in0.3 mm 0.00 in0.0 mm 0.24 in6.1 mm
07:20 PM 36.5°F2.5°C 34.9°F1.6°C 94% 7.0 mph SW11.3 kmh SW 17.0 mph27.4 kmh 29.27 in991.2 mb 0.01 in0.3 mm 0.00 in0.0 mm 0.24 in6.1 mm
07:25 PM 36.5°F2.5°C 34.9°F1.6°C 94% 8.0 mph SW12.9 kmh SW 18.0 mph29.0 kmh 29.27 in991.2 mb 0.01 in0.3 mm 0.00 in0.0 mm 0.24 in6.1 mm
07:30 PM 36.7°F2.6°C 34.7°F1.5°C 93% 9.0 mph SW14.5 kmh SW 18.0 mph29.0 kmh 29.27 in991.2 mb 0.01 in0.3 mm 0.00 in0.0 mm 0.24 in6.1 mm
07:35 PM 36.7°F2.6°C 34.7°F1.5°C 93% 8.0 mph SW12.9 kmh SW 16.0 mph25.7 kmh 29.27 in991.2 mb 0.01 in0.3 mm 0.00 in0.0 mm 0.24 in6.1 mm
07:40 PM 36.7°F2.6°C 34.7°F1.5°C 93% 9.0 mph SW14.5 kmh SW 16.0 mph25.7 kmh 29.26 in990.9 mb 0.01 in0.3 mm 0.00 in0.0 mm 0.24 in6.1 mm
07:45 PM 36.7°F2.6°C 34.7°F1.5°C 93% 9.0 mph SW14.5 kmh SW 19.0 mph30.6 kmh 29.26 in990.9 mb 0.01 in0.3 mm 0.00 in0.0 mm 0.24 in6.1 mm
07:50 PM 36.5°F2.5°C 34.7°F1.5°C 93% 8.0 mph SW12.9 kmh SW 19.0 mph30.6 kmh 29.26 in990.9 mb 0.01 in0.3 mm 0.00 in0.0 mm 0.24 in6.1 mm
07:55 PM 36.3°F2.4°C 34.9°F1.6°C 94% 8.0 mph SW12.9 kmh SW 18.0 mph29.0 kmh 29.26 in990.9 mb 0.00 in0.0 mm 0.00 in0.0 mm 0.24 in6.1 mm
08:00 PM 36.5°F2.5°C 34.9°F1.6°C 94% 7.0 mph SW11.3 kmh SW 20.0 mph32.2 kmh 29.25 in990.5 mb 0.00 in0.0 mm 0.00 in0.0 mm 0.24 in6.1 mm
08:05 PM 36.5°F2.5°C 34.9°F1.6°C 94% 8.0 mph SW12.9 kmh SW 21.0 mph33.8 kmh 29.25 in990.5 mb 0.00 in0.0 mm 0.00 in0.0 mm 0.24 in6.1 mm
08:10 PM 36.5°F2.5°C 34.9°F1.6°C 94% 8.0 mph SW12.9 kmh SW 21.0 mph33.8 kmh 29.25 in990.5 mb 0.00 in0.0 mm 0.00 in0.0 mm 0.24 in6.1 mm
08:15 PM 36.5°F2.5°C 34.9°F1.6°C 94% 7.0 mph SW11.3 kmh SW 15.0 mph24.1 kmh 29.25 in990.5 mb 0.00 in0.0 mm 0.00 in0.0 mm 0.24 in6.1 mm
08:20 PM 36.3°F2.4°C 34.9°F1.6°C 94% 6.0 mph SW9.7 kmh SW 15.0 mph24.1 kmh 29.24 in990.2 mb 0.00 in0.0 mm 0.00 in0.0 mm 0.24 in6.1 mm
08:25 PM 36.5°F2.5°C 34.9°F1.6°C 94% 6.0 mph SW9.7 kmh SW 15.0 mph24.1 kmh 29.24 in990.2 mb 0.00 in0.0 mm 0.00 in0.0 mm 0.24 in6.1 mm
08:30 PM 36.7°F2.6°C 35.1°F1.7°C 94% 8.0 mph SW12.9 kmh SW 19.0 mph30.6 kmh 29.23 in989.8 mb 0.00 in0.0 mm 0.00 in0.0 mm 0.24 in6.1 mm
08:35 PM 36.7°F2.6°C 35.1°F1.7°C 94% 8.0 mph SW12.9 kmh SW 19.0 mph30.6 kmh 29.23 in989.8 mb 0.00 in0.0 mm 0.00 in0.0 mm 0.24 in6.1 mm
08:40 PM 36.7°F2.6°C 34.9°F1.6°C 93% 8.0 mph SW12.9 kmh SW 23.0 mph37.0 kmh 29.23 in989.8 mb 0.00 in0.0 mm 0.00 in0.0 mm 0.24 in6.1 mm
08:45 PM 36.7°F2.6°C 34.9°F1.6°C 93% 8.0 mph SW12.9 kmh SW 23.0 mph37.0 kmh 29.23 in989.8 mb 0.01 in0.3 mm 0.12 in3.0 mm 0.24 in6.1 mm
08:50 PM 36.7°F2.6°C 34.7°F1.5°C 93% 7.0 mph SW11.3 kmh SW 16.0 mph25.7 kmh 29.22 in989.5 mb 0.01 in0.3 mm 0.00 in0.0 mm 0.24 in6.1 mm
08:55 PM 36.5°F2.5°C 34.7°F1.5°C 93% 7.0 mph SW11.3 kmh SW 22.0 mph35.4 kmh 29.22 in989.5 mb 0.01 in0.3 mm 0.00 in0.0 mm 0.24 in6.1 mm
09:00 PM 36.3°F2.4°C 34.9°F1.6°C 94% 7.0 mph SW11.3 kmh SW 22.0 mph35.4 kmh 29.22 in989.5 mb 0.01 in0.3 mm 0.00 in0.0 mm 0.24 in6.1 mm
09:05 PM 36.3°F2.4°C 34.7°F1.5°C 94% 7.0 mph SW11.3 kmh SW 16.0 mph25.7 kmh 29.22 in989.5 mb 0.01 in0.3 mm 0.00 in0.0 mm 0.24 in6.1 mm
09:10 PM 36.1°F2.3°C 34.7°F1.5°C 94% 8.0 mph SW12.9 kmh SW 21.0 mph33.8 kmh 29.21 in989.2 mb 0.02 in0.5 mm 0.12 in3.0 mm 0.25 in6.4 mm
09:15 PM 36.1°F2.3°C 34.5°F1.4°C 94% 7.0 mph SW11.3 kmh SW 21.0 mph33.8 kmh 29.21 in989.2 mb 0.02 in0.5 mm 0.00 in0.0 mm 0.25 in6.4 mm
09:20 PM 36.1°F2.3°C 34.7°F1.5°C 94% 7.0 mph SW11.3 kmh SW 15.0 mph24.1 kmh 29.21 in989.2 mb 0.02 in0.5 mm 0.00 in0.0 mm 0.25 in6.4 mm
09:25 PM 36.1°F2.3°C 34.7°F1.5°C 94% 7.0 mph SW11.3 kmh SW 15.0 mph24.1 kmh 29.20 in988.8 mb 0.02 in0.5 mm 0.00 in0.0 mm 0.25 in6.4 mm
09:30 PM 36.1°F2.3°C 34.9°F1.6°C 95% 6.0 mph SW9.7 kmh SW 13.0 mph20.9 kmh 29.20 in988.8 mb 0.02 in0.5 mm 0.00 in0.0 mm 0.25 in6.4 mm
09:35 PM 36.3°F2.4°C 35.1°F1.7°C 95% 7.0 mph SW11.3 kmh SW 16.0 mph25.7 kmh 29.19 in988.5 mb 0.02 in0.5 mm 0.00 in0.0 mm 0.25 in6.4 mm
09:40 PM 36.3°F2.4°C 35.1°F1.7°C 95% 8.0 mph SW12.9 kmh SW 18.0 mph29.0 kmh 29.19 in988.5 mb 0.02 in0.5 mm 0.00 in0.0 mm 0.25 in6.4 mm
09:45 PM 36.3°F2.4°C 35.1°F1.7°C 95% 9.0 mph SW14.5 kmh SW 18.0 mph29.0 kmh 29.19 in988.5 mb 0.01 in0.3 mm 0.00 in0.0 mm 0.25 in6.4 mm
09:50 PM 36.3°F2.4°C 34.9°F1.6°C 94% 9.0 mph SW14.5 kmh SW 17.0 mph27.4 kmh 29.19 in988.5 mb 0.01 in0.3 mm 0.00 in0.0 mm 0.25 in6.4 mm
09:55 PM 36.7°F2.6°C 35.1°F1.7°C 94% 8.0 mph SW12.9 kmh SW 23.0 mph37.0 kmh 29.19 in988.5 mb 0.01 in0.3 mm 0.00 in0.0 mm 0.25 in6.4 mm
10:00 PM 36.7°F2.6°C 35.1°F1.7°C 94% 9.0 mph SW14.5 kmh SW 23.0 mph37.0 kmh 29.18 in988.1 mb 0.01 in0.3 mm 0.00 in0.0 mm 0.25 in6.4 mm
10:05 PM 36.7°F2.6°C 35.1°F1.7°C 94% 8.0 mph SW12.9 kmh SW 16.0 mph25.7 kmh 29.18 in988.1 mb 0.01 in0.3 mm 0.00 in0.0 mm 0.25 in6.4 mm
10:10 PM 36.7°F2.6°C 35.1°F1.7°C 94% 8.0 mph SW12.9 kmh SW 18.0 mph29.0 kmh 29.18 in988.1 mb 0.00 in0.0 mm 0.00 in0.0 mm 0.25 in6.4 mm
10:15 PM 36.5°F2.5°C 34.9°F1.6°C 94% 7.0 mph SW11.3 kmh SW 18.0 mph29.0 kmh 29.18 in988.1 mb 0.00 in0.0 mm 0.00 in0.0 mm 0.25 in6.4 mm
10:20 PM 36.5°F2.5°C 34.9°F1.6°C 94% 8.0 mph SW12.9 kmh SW 17.0 mph27.4 kmh 29.17 in987.8 mb 0.00 in0.0 mm 0.00 in0.0 mm 0.25 in6.4 mm
10:25 PM 36.3°F2.4°C 34.9°F1.6°C 94% 9.0 mph SW14.5 kmh SW 18.0 mph29.0 kmh 29.17 in987.8 mb 0.00 in0.0 mm 0.00 in0.0 mm 0.25 in6.4 mm
10:30 PM 36.3°F2.4°C 34.9°F1.6°C 94% 8.0 mph SW12.9 kmh SW 18.0 mph29.0 kmh 29.16 in987.5 mb 0.00 in0.0 mm 0.00 in0.0 mm 0.25 in6.4 mm
10:35 PM 36.3°F2.4°C 35.1°F1.7°C 95% 7.0 mph SW11.3 kmh SW 15.0 mph24.1 kmh 29.16 in987.5 mb 0.00 in0.0 mm 0.00 in0.0 mm 0.25 in6.4 mm
10:40 PM 36.3°F2.4°C 34.9°F1.6°C 94% 6.0 mph SW9.7 kmh SW 15.0 mph24.1 kmh 29.16 in987.5 mb 0.00 in0.0 mm 0.00 in0.0 mm 0.25 in6.4 mm
10:45 PM 36.5°F2.5°C 34.9°F1.6°C 94% 6.0 mph SW9.7 kmh SW 14.0 mph22.5 kmh 29.16 in987.5 mb 0.00 in0.0 mm 0.00 in0.0 mm 0.25 in6.4 mm
10:50 PM 36.7°F2.6°C 35.1°F1.7°C 94% 7.0 mph SW11.3 kmh SW 14.0 mph22.5 kmh 29.16 in987.5 mb 0.00 in0.0 mm 0.00 in0.0 mm 0.25 in6.4 mm
10:55 PM 36.7°F2.6°C 35.1°F1.7°C 94% 7.0 mph SW11.3 kmh SW 18.0 mph29.0 kmh 29.16 in987.5 mb 0.00 in0.0 mm 0.00 in0.0 mm 0.25 in6.4 mm
11:00 PM 36.7°F2.6°C 35.1°F1.7°C 94% 8.0 mph SW12.9 kmh SW 18.0 mph29.0 kmh 29.15 in987.1 mb 0.00 in0.0 mm 0.00 in0.0 mm 0.25 in6.4 mm
11:05 PM 36.7°F2.6°C 34.9°F1.6°C 93% 8.0 mph SW12.9 kmh SW 17.0 mph27.4 kmh 29.15 in987.1 mb 0.00 in0.0 mm 0.00 in0.0 mm 0.25 in6.4 mm
11:10 PM 36.7°F2.6°C 35.1°F1.7°C 94% 7.0 mph SW11.3 kmh SW 16.0 mph25.7 kmh 29.15 in987.1 mb 0.00 in0.0 mm 0.00 in0.0 mm 0.25 in6.4 mm
11:15 PM 36.7°F2.6°C 34.9°F1.6°C 93% 6.0 mph SW9.7 kmh SW 16.0 mph25.7 kmh 29.15 in987.1 mb 0.00 in0.0 mm 0.00 in0.0 mm 0.25 in6.4 mm
11:20 PM 36.7°F2.6°C 35.1°F1.7°C 94% 5.0 mph SW8.0 kmh SW 13.0 mph20.9 kmh 29.14 in986.8 mb 0.00 in0.0 mm 0.00 in0.0 mm 0.25 in6.4 mm
11:25 PM 36.5°F2.5°C 34.9°F1.6°C 94% 6.0 mph SW9.7 kmh SW 14.0 mph22.5 kmh 29.14 in986.8 mb 0.00 in0.0 mm 0.00 in0.0 mm 0.25 in6.4 mm
11:30 PM 36.3°F2.4°C 34.9°F1.6°C 94% 7.0 mph SW11.3 kmh SW 14.0 mph22.5 kmh 29.14 in986.8 mb 0.01 in0.3 mm 0.12 in3.0 mm 0.26 in6.6 mm
11:35 PM 36.3°F2.4°C 34.9°F1.6°C 94% 7.0 mph SW11.3 kmh SW 16.0 mph25.7 kmh 29.14 in986.8 mb 0.01 in0.3 mm 0.00 in0.0 mm 0.26 in6.6 mm
11:40 PM 36.3°F2.4°C 34.7°F1.5°C 94% 7.0 mph SW11.3 kmh SW 16.0 mph25.7 kmh 29.14 in986.8 mb 0.01 in0.3 mm 0.00 in0.0 mm 0.26 in6.6 mm
11:45 PM 36.1°F2.3°C 34.7°F1.5°C 94% 7.0 mph SW11.3 kmh SW 14.0 mph22.5 kmh 29.13 in986.5 mb 0.02 in0.5 mm 0.12 in3.0 mm 0.27 in6.9 mm
11:50 PM 36.0°F2.2°C 34.5°F1.4°C 94% 8.0 mph SW12.9 kmh SW 15.0 mph24.1 kmh 29.13 in986.5 mb 0.02 in0.5 mm 0.00 in0.0 mm 0.28 in7.1 mm
11:55 PM 36.0°F2.2°C 34.7°F1.5°C 95% 7.0 mph SW11.3 kmh SW 15.0 mph24.1 kmh 29.13 in986.5 mb 0.02 in0.5 mm 0.00 in0.0 mm 0.28 in7.1 mm